Terminal Aerodrome Forecast
Issued by NWS Shreveport, LA

Home | Current Version | Previous Version | Text Only | Print | Product List | Glossary On
Versions: 1 2 3 4 5 6 7 8 9 10 11 12 13 14 15 16 17
000
FTUS44 KSHV 301749
TAFSHV
TAF
KSHV 301749Z 3018/0118 24010KT P6SM SCT020 BKN045
     FM302200 24008KT P6SM SCT050 SCT120 BKN250
     FM010100 23006KT P6SM BKN050 BKN150
     FM010300 24003KT P6SM VCTS BKN045CB OVC250
     FM010500 22004KT P6SM SCT050 BKN150
     FM011400 24008KT P6SM BKN250=

USA.gov is the U.S. government's official web portal to all federal, state and local government web resources and services.